sensor_id;sensor_type;location;lat;lon;timestamp;pressure;altitude;pressure_sealevel;temperature;humidity
77450;BME280;66536;53.150;18.172;2024-02-23T00:00:03;98795.82;;;8.24;89.21
77450;BME280;66536;53.150;18.172;2024-02-23T00:02:32;98791.05;;;8.25;89.17
77450;BME280;66536;53.150;18.172;2024-02-23T00:04:58;98793.80;;;8.26;89.10
77450;BME280;66536;53.150;18.172;2024-02-23T00:07:24;98791.14;;;8.27;89.27
77450;BME280;66536;53.150;18.172;2024-02-23T00:09:50;98790.48;;;8.27;89.22
77450;BME280;66536;53.150;18.172;2024-02-23T00:12:17;98792.90;;;8.28;89.22
77450;BME280;66536;53.150;18.172;2024-02-23T00:14:43;98795.45;;;8.30;89.21
77450;BME280;66536;53.150;18.172;2024-02-23T00:17:09;98793.77;;;8.31;89.09
77450;BME280;66536;53.150;18.172;2024-02-23T00:19:35;98790.16;;;8.31;89.06
77450;BME280;66536;53.150;18.172;2024-02-23T00:22:02;98791.71;;;8.31;88.98
77450;BME280;66536;53.150;18.172;2024-02-23T00:24:29;98790.03;;;8.32;89.02
77450;BME280;66536;53.150;18.172;2024-02-23T00:26:55;98793.30;;;8.33;89.00
77450;BME280;66536;53.150;18.172;2024-02-23T00:29:21;98787.98;;;8.34;89.05
77450;BME280;66536;53.150;18.172;2024-02-23T00:31:47;98782.73;;;8.35;88.91
77450;BME280;66536;53.150;18.172;2024-02-23T00:34:14;98780.64;;;8.36;89.04
77450;BME280;66536;53.150;18.172;2024-02-23T00:36:41;98777.80;;;8.38;88.96
77450;BME280;66536;53.150;18.172;2024-02-23T00:39:08;98773.73;;;8.39;88.84
77450;BME280;66536;53.150;18.172;2024-02-23T00:41:35;98773.95;;;8.39;88.80
77450;BME280;66536;53.150;18.172;2024-02-23T00:44:03;98771.73;;;8.40;88.90
77450;BME280;66536;53.150;18.172;2024-02-23T00:46:31;98775.31;;;8.42;88.76
77450;BME280;66536;53.150;18.172;2024-02-23T00:48:58;98768.46;;;8.43;88.72
77450;BME280;66536;53.150;18.172;2024-02-23T00:51:24;98770.27;;;8.43;88.68
77450;BME280;66536;53.150;18.172;2024-02-23T00:53:50;98770.75;;;8.44;88.62
77450;BME280;66536;53.150;18.172;2024-02-23T00:56:16;98768.02;;;8.45;88.63
77450;BME280;66536;53.150;18.172;2024-02-23T00:58:42;98761.91;;;8.46;88.68
77450;BME280;66536;53.150;18.172;2024-02-23T01:01:08;98755.64;;;8.48;88.46
77450;BME280;66536;53.150;18.172;2024-02-23T01:03:34;98747.66;;;8.49;88.55
77450;BME280;66536;53.150;18.172;2024-02-23T01:06:00;98745.61;;;8.50;88.56
77450;BME280;66536;53.150;18.172;2024-02-23T01:08:26;98740.52;;;8.51;88.44
77450;BME280;66536;53.150;18.172;2024-02-23T01:10:52;98740.58;;;8.52;88.32
77450;BME280;66536;53.150;18.172;2024-02-23T01:13:18;98744.72;;;8.52;88.11
77450;BME280;66536;53.150;18.172;2024-02-23T01:15:44;98737.10;;;8.54;88.06
77450;BME280;66536;53.150;18.172;2024-02-23T01:18:11;98741.39;;;8.55;88.20
77450;BME280;66536;53.150;18.172;2024-02-23T01:20:37;98739.86;;;8.56;88.12
77450;BME280;66536;53.150;18.172;2024-02-23T01:23:03;98742.96;;;8.57;87.90
77450;BME280;66536;53.150;18.172;2024-02-23T01:25:49;98739.29;;;8.59;88.02
77450;BME280;66536;53.150;18.172;2024-02-23T01:28:35;98739.76;;;8.60;87.89
77450;BME280;66536;53.150;18.172;2024-02-23T01:31:02;98739.67;;;8.62;87.97
77450;BME280;66536;53.150;18.172;2024-02-23T01:33:29;98735.20;;;8.63;88.07
77450;BME280;66536;53.150;18.172;2024-02-23T01:35:55;98734.63;;;8.63;88.20
77450;BME280;66536;53.150;18.172;2024-02-23T01:38:24;98737.63;;;8.64;88.25
77450;BME280;66536;53.150;18.172;2024-02-23T01:40:50;98735.46;;;8.63;88.47
77450;BME280;66536;53.150;18.172;2024-02-23T01:43:16;98739.63;;;8.63;88.38
77450;BME280;66536;53.150;18.172;2024-02-23T01:45:43;98743.39;;;8.63;88.34
77450;BME280;66536;53.150;18.172;2024-02-23T01:48:09;98743.86;;;8.63;88.46
77450;BME280;66536;53.150;18.172;2024-02-23T01:50:39;98741.69;;;8.63;88.60
77450;BME280;66536;53.150;18.172;2024-02-23T01:53:05;98741.73;;;8.63;88.64
77450;BME280;66536;53.150;18.172;2024-02-23T01:55:31;98744.63;;;8.62;88.79
77450;BME280;66536;53.150;18.172;2024-02-23T01:57:59;98749.60;;;8.61;88.84
77450;BME280;66536;53.150;18.172;2024-02-23T02:00:26;98756.30;;;8.60;89.00
77450;BME280;66536;53.150;18.172;2024-02-23T02:02:54;98758.20;;;8.58;89.10
77450;BME280;66536;53.150;18.172;2024-02-23T02:05:21;98758.13;;;8.57;89.34
77450;BME280;66536;53.150;18.172;2024-02-23T02:07:49;98759.14;;;8.56;89.43
77450;BME280;66536;53.150;18.172;2024-02-23T02:10:20;98758.41;;;8.55;89.53
77450;BME280;66536;53.150;18.172;2024-02-23T02:12:47;98753.81;;;8.54;89.62
77450;BME280;66536;53.150;18.172;2024-02-23T02:15:13;98755.22;;;8.51;89.76
77450;BME280;66536;53.150;18.172;2024-02-23T02:17:39;98752.10;;;8.49;89.67
77450;BME280;66536;53.150;18.172;2024-02-23T02:20:11;98760.70;;;8.48;89.80
77450;BME280;66536;53.150;18.172;2024-02-23T02:22:37;98765.89;;;8.47;89.87
77450;BME280;66536;53.150;18.172;2024-02-23T02:25:04;98769.45;;;8.47;89.93
77450;BME280;66536;53.150;18.172;2024-02-23T02:27:30;98774.65;;;8.47;89.99
77450;BME280;66536;53.150;18.172;2024-02-23T02:29:56;98768.75;;;8.48;89.85
77450;BME280;66536;53.150;18.172;2024-02-23T02:32:23;98765.72;;;8.49;89.96
77450;BME280;66536;53.150;18.172;2024-02-23T02:34:49;98753.03;;;8.50;90.09
77450;BME280;66536;53.150;18.172;2024-02-23T02:37:16;98751.55;;;8.52;90.07
77450;BME280;66536;53.150;18.172;2024-02-23T02:39:42;98762.41;;;8.53;90.26
77450;BME280;66536;53.150;18.172;2024-02-23T02:42:08;98753.60;;;8.53;90.39
77450;BME280;66536;53.150;18.172;2024-02-23T02:44:34;98754.17;;;8.53;90.40
77450;BME280;66536;53.150;18.172;2024-02-23T02:47:00;98755.10;;;8.54;90.52
77450;BME280;66536;53.150;18.172;2024-02-23T02:49:26;98746.96;;;8.56;90.64
77450;BME280;66536;53.150;18.172;2024-02-23T02:51:52;98747.71;;;8.56;90.69
77450;BME280;66536;53.150;18.172;2024-02-23T02:54:18;98740.84;;;8.56;90.79
77450;BME280;66536;53.150;18.172;2024-02-23T02:56:46;98738.26;;;8.56;90.94
77450;BME280;66536;53.150;18.172;2024-02-23T02:59:13;98722.95;;;8.56;90.86
77450;BME280;66536;53.150;18.172;2024-02-23T03:01:39;98733.33;;;8.57;90.98
77450;BME280;66536;53.150;18.172;2024-02-23T03:04:08;98741.88;;;8.57;91.01
77450;BME280;66536;53.150;18.172;2024-02-23T03:06:34;98743.54;;;8.58;91.05
77450;BME280;66536;53.150;18.172;2024-02-23T03:09:00;98742.31;;;8.58;91.05
77450;BME280;66536;53.150;18.172;2024-02-23T03:11:26;98744.17;;;8.58;91.14
77450;BME280;66536;53.150;18.172;2024-02-23T03:13:52;98744.08;;;8.59;91.20
77450;BME280;66536;53.150;18.172;2024-02-23T03:16:21;98756.86;;;8.59;91.35
77450;BME280;66536;53.150;18.172;2024-02-23T03:18:49;98760.31;;;8.59;91.28
77450;BME280;66536;53.150;18.172;2024-02-23T03:21:16;98768.16;;;8.60;91.31
77450;BME280;66536;53.150;18.172;2024-02-23T03:23:42;98765.95;;;8.60;91.34
77450;BME280;66536;53.150;18.172;2024-02-23T03:26:08;98765.02;;;8.60;91.42
77450;BME280;66536;53.150;18.172;2024-02-23T03:28:34;98769.56;;;8.61;91.55
77450;BME280;66536;53.150;18.172;2024-02-23T03:31:01;98781.12;;;8.60;91.57
77450;BME280;66536;53.150;18.172;2024-02-23T03:33:27;98782.48;;;8.62;91.59
77450;BME280;66536;53.150;18.172;2024-02-23T03:35:53;98782.17;;;8.62;91.70
77450;BME280;66536;53.150;18.172;2024-02-23T03:38:19;98771.01;;;8.63;91.82
77450;BME280;66536;53.150;18.172;2024-02-23T03:40:45;98769.36;;;8.64;91.85
77450;BME280;66536;53.150;18.172;2024-02-23T03:43:11;98774.20;;;8.64;91.85
77450;BME280;66536;53.150;18.172;2024-02-23T03:45:37;98778.97;;;8.64;91.92
77450;BME280;66536;53.150;18.172;2024-02-23T03:48:04;98777.41;;;8.64;92.01
77450;BME280;66536;53.150;18.172;2024-02-23T03:50:30;98785.76;;;8.65;92.00
77450;BME280;66536;53.150;18.172;2024-02-23T03:52:56;98786.48;;;8.65;92.11
77450;BME280;66536;53.150;18.172;2024-02-23T03:55:22;98797.02;;;8.66;92.14
77450;BME280;66536;53.150;18.172;2024-02-23T03:57:48;98793.98;;;8.67;92.21
77450;BME280;66536;53.150;18.172;2024-02-23T04:00:16;98808.98;;;8.69;92.31
77450;BME280;66536;53.150;18.172;2024-02-23T04:02:43;98809.15;;;8.71;92.25
77450;BME280;66536;53.150;18.172;2024-02-23T04:05:09;98813.88;;;8.73;92.30
77450;BME280;66536;53.150;18.172;2024-02-23T04:07:35;98811.20;;;8.74;92.37
77450;BME280;66536;53.150;18.172;2024-02-23T04:10:01;98818.55;;;8.76;92.26
77450;BME280;66536;53.150;18.172;2024-02-23T04:12:27;98823.14;;;8.76;92.23
77450;BME280;66536;53.150;18.172;2024-02-23T04:14:53;98825.38;;;8.77;92.39
77450;BME280;66536;53.150;18.172;2024-02-23T04:17:19;98831.26;;;8.78;92.34
77450;BME280;66536;53.150;18.172;2024-02-23T04:19:45;98835.27;;;8.77;92.35
77450;BME280;66536;53.150;18.172;2024-02-23T04:22:12;98835.61;;;8.75;92.59
77450;BME280;66536;53.150;18.172;2024-02-23T04:24:39;98843.35;;;8.75;92.51
77450;BME280;66536;53.150;18.172;2024-02-23T04:27:06;98842.67;;;8.74;92.59
77450;BME280;66536;53.150;18.172;2024-02-23T04:29:34;98837.46;;;8.75;92.86
77450;BME280;66536;53.150;18.172;2024-02-23T04:32:01;98840.69;;;8.77;92.88
77450;BME280;66536;53.150;18.172;2024-02-23T04:34:28;98845.13;;;8.80;92.82
77450;BME280;66536;53.150;18.172;2024-02-23T04:36:54;98847.61;;;8.82;92.83
77450;BME280;66536;53.150;18.172;2024-02-23T04:39:21;98846.67;;;8.85;92.72
77450;BME280;66536;53.150;18.172;2024-02-23T04:41:47;98848.56;;;8.87;92.78
77450;BME280;66536;53.150;18.172;2024-02-23T04:44:13;98850.02;;;8.89;92.76
77450;BME280;66536;53.150;18.172;2024-02-23T04:46:40;98853.34;;;8.90;92.70
77450;BME280;66536;53.150;18.172;2024-02-23T04:49:06;98855.23;;;8.92;92.79
77450;BME280;66536;53.150;18.172;2024-02-23T04:51:32;98857.02;;;8.92;92.81
77450;BME280;66536;53.150;18.172;2024-02-23T04:53:58;98856.84;;;8.93;92.86
77450;BME280;66536;53.150;18.172;2024-02-23T04:56:24;98859.43;;;8.95;92.82
77450;BME280;66536;53.150;18.172;2024-02-23T04:58:51;98866.80;;;8.98;92.74
77450;BME280;66536;53.150;18.172;2024-02-23T05:01:17;98869.71;;;9.00;92.68
77450;BME280;66536;53.150;18.172;2024-02-23T05:03:43;98871.47;;;9.03;92.71
77450;BME280;66536;53.150;18.172;2024-02-23T05:06:09;98873.04;;;9.05;92.70
77450;BME280;66536;53.150;18.172;2024-02-23T05:08:35;98874.30;;;9.07;92.56
77450;BME280;66536;53.150;18.172;2024-02-23T05:11:01;98881.48;;;9.08;92.62
77450;BME280;66536;53.150;18.172;2024-02-23T05:13:27;98882.11;;;9.10;92.61
77450;BME280;66536;53.150;18.172;2024-02-23T05:15:55;98888.42;;;9.11;92.52
77450;BME280;66536;53.150;18.172;2024-02-23T05:18:22;98888.50;;;9.13;92.50
77450;BME280;66536;53.150;18.172;2024-02-23T05:20:48;98894.09;;;9.14;92.46
77450;BME280;66536;53.150;18.172;2024-02-23T05:23:15;98896.60;;;9.16;92.49
77450;BME280;66536;53.150;18.172;2024-02-23T05:25:42;98902.80;;;9.17;92.43
77450;BME280;66536;53.150;18.172;2024-02-23T05:28:08;98909.40;;;9.18;92.39
77450;BME280;66536;53.150;18.172;2024-02-23T05:30:34;98910.82;;;9.18;92.50
77450;BME280;66536;53.150;18.172;2024-02-23T05:33:00;98914.17;;;9.19;92.42
77450;BME280;66536;53.150;18.172;2024-02-23T05:35:29;98913.48;;;9.18;92.30
77450;BME280;66536;53.150;18.172;2024-02-23T05:37:55;98914.16;;;9.17;92.34
77450;BME280;66536;53.150;18.172;2024-02-23T05:40:22;98923.39;;;9.18;92.27
77450;BME280;66536;53.150;18.172;2024-02-23T05:42:48;98924.79;;;9.18;92.11
77450;BME280;66536;53.150;18.172;2024-02-23T05:45:14;98932.18;;;9.19;92.17
77450;BME280;66536;53.150;18.172;2024-02-23T05:47:40;98934.30;;;9.18;92.12
77450;BME280;66536;53.150;18.172;2024-02-23T05:50:08;98948.86;;;9.20;92.11
77450;BME280;66536;53.150;18.172;2024-02-23T05:52:35;98952.98;;;9.22;92.01
77450;BME280;66536;53.150;18.172;2024-02-23T05:55:03;98955.80;;;9.24;91.82
77450;BME280;66536;53.150;18.172;2024-02-23T05:57:30;98960.20;;;9.26;91.61
77450;BME280;66536;53.150;18.172;2024-02-23T05:59:56;98963.02;;;9.28;91.73
77450;BME280;66536;53.150;18.172;2024-02-23T06:02:22;98971.00;;;9.30;91.54
77450;BME280;66536;53.150;18.172;2024-02-23T06:04:48;98983.41;;;9.31;91.49
77450;BME280;66536;53.150;18.172;2024-02-23T06:07:14;98988.17;;;9.33;91.49
77450;BME280;66536;53.150;18.172;2024-02-23T06:09:42;98989.11;;;9.36;91.32
77450;BME280;66536;53.150;18.172;2024-02-23T06:12:08;98999.95;;;9.41;91.25
77450;BME280;66536;53.150;18.172;2024-02-23T06:14:35;99002.42;;;9.45;91.17
77450;BME280;66536;53.150;18.172;2024-02-23T06:17:02;99008.36;;;9.48;91.01
77450;BME280;66536;53.150;18.172;2024-02-23T06:19:28;99015.40;;;9.54;90.79
77450;BME280;66536;53.150;18.172;2024-02-23T06:21:55;99022.45;;;9.59;90.62
77450;BME280;66536;53.150;18.172;2024-02-23T06:24:21;99027.06;;;9.65;90.39
77450;BME280;66536;53.150;18.172;2024-02-23T06:26:47;99038.16;;;9.69;90.12
77450;BME280;66536;53.150;18.172;2024-02-23T06:29:15;99040.79;;;9.72;90.05
77450;BME280;66536;53.150;18.172;2024-02-23T06:31:41;99049.86;;;9.74;89.90
77450;BME280;66536;53.150;18.172;2024-02-23T06:34:08;99052.99;;;9.77;89.63
77450;BME280;66536;53.150;18.172;2024-02-23T06:36:34;99062.55;;;9.81;89.66
77450;BME280;66536;53.150;18.172;2024-02-23T06:39:01;99062.31;;;9.84;89.41
77450;BME280;66536;53.150;18.172;2024-02-23T06:41:27;99073.05;;;9.87;89.11
77450;BME280;66536;53.150;18.172;2024-02-23T06:43:54;99075.65;;;9.92;89.10
77450;BME280;66536;53.150;18.172;2024-02-23T06:46:20;99078.27;;;9.95;88.87
77450;BME280;66536;53.150;18.172;2024-02-23T06:48:47;99074.69;;;9.98;88.18
77450;BME280;66536;53.150;18.172;2024-02-23T06:51:13;99083.83;;;10.05;87.86
77450;BME280;66536;53.150;18.172;2024-02-23T06:53:41;99087.20;;;10.10;87.45
77450;BME280;66536;53.150;18.172;2024-02-23T06:56:07;99093.81;;;10.14;87.73
77450;BME280;66536;53.150;18.172;2024-02-23T06:58:34;99100.98;;;10.17;87.69
77450;BME280;66536;53.150;18.172;2024-02-23T07:01:00;99109.69;;;10.17;87.28
77450;BME280;66536;53.150;18.172;2024-02-23T07:03:29;99109.43;;;10.18;86.72
77450;BME280;66536;53.150;18.172;2024-02-23T07:05:55;99112.04;;;10.20;82.57
77450;BME280;66536;53.150;18.172;2024-02-23T07:08:21;99116.25;;;10.26;79.70
77450;BME280;66536;53.150;18.172;2024-02-23T07:10:47;99114.98;;;10.34;79.71
77450;BME280;66536;53.150;18.172;2024-02-23T07:13:13;99124.55;;;10.38;79.88
77450;BME280;66536;53.150;18.172;2024-02-23T07:15:40;99119.41;;;10.42;76.74
77450;BME280;66536;53.150;18.172;2024-02-23T07:18:06;99127.27;;;10.46;77.31
77450;BME280;66536;53.150;18.172;2024-02-23T07:20:36;99138.84;;;10.50;78.98
77450;BME280;66536;53.150;18.172;2024-02-23T07:23:02;99143.44;;;10.53;79.66
77450;BME280;66536;53.150;18.172;2024-02-23T07:25:28;99146.35;;;10.55;79.14
77450;BME280;66536;53.150;18.172;2024-02-23T07:27:55;99140.52;;;10.57;76.96
77450;BME280;66536;53.150;18.172;2024-02-23T07:30:21;99151.17;;;10.61;76.71
77450;BME280;66536;53.150;18.172;2024-02-23T07:32:48;99167.31;;;10.65;76.52
77450;BME280;66536;53.150;18.172;2024-02-23T07:35:15;99169.30;;;10.67;73.37
77450;BME280;66536;53.150;18.172;2024-02-23T07:37:41;99175.73;;;10.70;72.64
77450;BME280;66536;53.150;18.172;2024-02-23T07:40:07;99182.38;;;10.71;70.36
77450;BME280;66536;53.150;18.172;2024-02-23T07:42:34;99188.48;;;10.75;71.03
77450;BME280;66536;53.150;18.172;2024-02-23T07:45:03;99196.11;;;10.77;69.97
77450;BME280;66536;53.150;18.172;2024-02-23T07:47:31;99203.52;;;10.79;70.30
77450;BME280;66536;53.150;18.172;2024-02-23T07:49:57;99201.85;;;10.82;69.79
77450;BME280;66536;53.150;18.172;2024-02-23T07:52:24;99210.79;;;10.84;67.54
77450;BME280;66536;53.150;18.172;2024-02-23T07:54:52;99218.55;;;10.86;67.62
77450;BME280;66536;53.150;18.172;2024-02-23T07:57:19;99227.65;;;10.84;64.60
77450;BME280;66536;53.150;18.172;2024-02-23T07:59:46;99224.61;;;10.81;63.96
77450;BME280;66536;53.150;18.172;2024-02-23T08:02:12;99240.64;;;10.79;62.95
77450;BME280;66536;53.150;18.172;2024-02-23T08:04:39;99245.34;;;10.78;62.23
77450;BME280;66536;53.150;18.172;2024-02-23T08:07:05;99247.95;;;10.77;60.86
77450;BME280;66536;53.150;18.172;2024-02-23T08:09:31;99248.38;;;10.77;61.16
77450;BME280;66536;53.150;18.172;2024-02-23T08:11:58;99256.00;;;10.78;62.65
77450;BME280;66536;53.150;18.172;2024-02-23T08:14:24;99258.38;;;10.78;60.80
77450;BME280;66536;53.150;18.172;2024-02-23T08:16:51;99275.52;;;10.78;62.33
77450;BME280;66536;53.150;18.172;2024-02-23T08:19:17;99274.63;;;10.77;63.13
77450;BME280;66536;53.150;18.172;2024-02-23T08:21:43;99287.28;;;10.75;61.39
77450;BME280;66536;53.150;18.172;2024-02-23T08:24:09;99296.58;;;10.73;61.65
77450;BME280;66536;53.150;18.172;2024-02-23T08:26:35;99291.39;;;10.73;62.05
77450;BME280;66536;53.150;18.172;2024-02-23T08:29:04;99299.92;;;10.72;61.69
77450;BME280;66536;53.150;18.172;2024-02-23T08:31:31;99308.59;;;10.73;61.05
77450;BME280;66536;53.150;18.172;2024-02-23T08:33:57;99312.45;;;10.77;62.91
77450;BME280;66536;53.150;18.172;2024-02-23T08:36:23;99317.90;;;10.82;62.71
77450;BME280;66536;53.150;18.172;2024-02-23T08:38:49;99320.41;;;10.87;62.73
77450;BME280;66536;53.150;18.172;2024-02-23T08:41:15;99324.44;;;10.92;63.21
77450;BME280;66536;53.150;18.172;2024-02-23T08:43:41;99327.63;;;10.94;61.69
77450;BME280;66536;53.150;18.172;2024-02-23T08:46:07;99335.38;;;10.93;62.29
77450;BME280;66536;53.150;18.172;2024-02-23T08:48:34;99338.36;;;10.92;62.50
77450;BME280;66536;53.150;18.172;2024-02-23T08:51:00;99339.49;;;10.90;62.18
77450;BME280;66536;53.150;18.172;2024-02-23T08:53:26;99348.73;;;10.88;60.97
77450;BME280;66536;53.150;18.172;2024-02-23T08:55:52;99354.45;;;10.86;60.63
77450;BME280;66536;53.150;18.172;2024-02-23T08:58:19;99359.34;;;10.88;61.65
77450;BME280;66536;53.150;18.172;2024-02-23T09:00:45;99364.94;;;10.93;60.83
77450;BME280;66536;53.150;18.172;2024-02-23T09:03:11;99366.95;;;11.01;62.29
77450;BME280;66536;53.150;18.172;2024-02-23T09:05:37;99371.52;;;11.10;62.61
77450;BME280;66536;53.150;18.172;2024-02-23T09:08:05;99368.93;;;11.20;62.43
77450;BME280;66536;53.150;18.172;2024-02-23T09:10:31;99364.43;;;11.29;61.40
77450;BME280;66536;53.150;18.172;2024-02-23T09:12:58;99370.32;;;11.36;60.64
77450;BME280;66536;53.150;18.172;2024-02-23T09:15:24;99370.55;;;11.44;60.93
77450;BME280;66536;53.150;18.172;2024-02-23T09:17:50;99374.48;;;11.54;60.37
77450;BME280;66536;53.150;18.172;2024-02-23T09:20:16;99373.67;;;11.60;58.74
77450;BME280;66536;53.150;18.172;2024-02-23T09:22:43;99378.59;;;11.67;60.06
77450;BME280;66536;53.150;18.172;2024-02-23T09:25:09;99377.98;;;11.79;60.94
77450;BME280;66536;53.150;18.172;2024-02-23T09:27:35;99379.33;;;11.91;59.49
77450;BME280;66536;53.150;18.172;2024-02-23T09:30:07;99392.68;;;11.99;59.75
77450;BME280;66536;53.150;18.172;2024-02-23T09:32:33;99392.98;;;12.05;59.81
77450;BME280;66536;53.150;18.172;2024-02-23T09:34:59;99398.68;;;12.08;59.42
77450;BME280;66536;53.150;18.172;2024-02-23T09:37:26;99403.05;;;12.06;57.81
77450;BME280;66536;53.150;18.172;2024-02-23T09:39:52;99404.45;;;12.04;59.08
77450;BME280;66536;53.150;18.172;2024-02-23T09:42:20;99413.70;;;12.06;59.03
77450;BME280;66536;53.150;18.172;2024-02-23T09:44:55;99422.69;;;12.08;57.41
77450;BME280;66536;53.150;18.172;2024-02-23T09:47:25;99429.41;;;12.06;56.86
77450;BME280;66536;53.150;18.172;2024-02-23T09:49:53;99430.13;;;12.05;57.71
77450;BME280;66536;53.150;18.172;2024-02-23T09:52:21;99433.77;;;12.06;57.08
77450;BME280;66536;53.150;18.172;2024-02-23T09:54:48;99443.19;;;12.09;57.77
77450;BME280;66536;53.150;18.172;2024-02-23T09:57:16;99452.36;;;12.13;57.43
77450;BME280;66536;53.150;18.172;2024-02-23T09:59:44;99461.74;;;12.18;57.51
77450;BME280;66536;53.150;18.172;2024-02-23T10:02:15;99466.13;;;12.21;57.24
77450;BME280;66536;53.150;18.172;2024-02-23T10:04:42;99460.40;;;12.19;56.40
77450;BME280;66536;53.150;18.172;2024-02-23T10:07:10;99478.66;;;12.20;56.63
77450;BME280;66536;53.150;18.172;2024-02-23T10:09:37;99481.41;;;12.25;56.99
77450;BME280;66536;53.150;18.172;2024-02-23T10:12:03;99491.41;;;12.35;57.42
77450;BME280;66536;53.150;18.172;2024-02-23T10:14:30;99496.42;;;12.44;57.21
77450;BME280;66536;53.150;18.172;2024-02-23T10:16:56;99504.35;;;12.55;55.59
77450;BME280;66536;53.150;18.172;2024-02-23T10:19:25;99504.32;;;12.63;56.11
77450;BME280;66536;53.150;18.172;2024-02-23T10:21:56;99507.23;;;12.75;54.92
77450;BME280;66536;53.150;18.172;2024-02-23T10:24:23;99516.61;;;12.82;54.66
77450;BME280;66536;53.150;18.172;2024-02-23T10:26:51;99517.54;;;12.87;54.27
77450;BME280;66536;53.150;18.172;2024-02-23T10:29:17;99516.29;;;12.95;53.83
77450;BME280;66536;53.150;18.172;2024-02-23T10:31:47;99523.77;;;13.02;52.63
77450;BME280;66536;53.150;18.172;2024-02-23T10:34:18;99538.42;;;13.01;52.48
77450;BME280;66536;53.150;18.172;2024-02-23T10:36:46;99540.70;;;13.00;51.75
77450;BME280;66536;53.150;18.172;2024-02-23T10:39:17;99544.90;;;13.00;51.78
77450;BME280;66536;53.150;18.172;2024-02-23T10:41:47;99545.52;;;12.94;50.20
77450;BME280;66536;53.150;18.172;2024-02-23T10:44:19;99556.98;;;12.84;50.46
77450;BME280;66536;53.150;18.172;2024-02-23T10:46:46;99551.88;;;12.77;51.40
77450;BME280;66536;53.150;18.172;2024-02-23T10:49:14;99560.19;;;12.77;51.89
77450;BME280;66536;53.150;18.172;2024-02-23T10:51:41;99567.80;;;12.80;51.58
77450;BME280;66536;53.150;18.172;2024-02-23T10:54:10;99568.85;;;12.80;50.70
77450;BME280;66536;53.150;18.172;2024-02-23T10:56:37;99567.96;;;12.81;51.25
77450;BME280;66536;53.150;18.172;2024-02-23T10:59:03;99574.95;;;12.90;51.84
77450;BME280;66536;53.150;18.172;2024-02-23T11:01:32;99578.64;;;13.03;51.77
77450;BME280;66536;53.150;18.172;2024-02-23T11:03:59;99577.25;;;13.16;51.38
77450;BME280;66536;53.150;18.172;2024-02-23T11:06:27;99573.19;;;13.22;49.32
77450;BME280;66536;53.150;18.172;2024-02-23T11:09:04;99572.70;;;13.20;49.46
77450;BME280;66536;53.150;18.172;2024-02-23T11:11:32;99575.48;;;13.24;49.64
77450;BME280;66536;53.150;18.172;2024-02-23T11:14:03;99572.86;;;13.29;50.12
77450;BME280;66536;53.150;18.172;2024-02-23T11:16:33;99573.95;;;13.37;49.15
77450;BME280;66536;53.150;18.172;2024-02-23T11:19:07;99578.50;;;13.34;47.05
77450;BME280;66536;53.150;18.172;2024-02-23T11:21:35;99582.02;;;13.29;47.47
77450;BME280;66536;53.150;18.172;2024-02-23T11:24:05;99579.70;;;13.34;48.03
77450;BME280;66536;53.150;18.172;2024-02-23T11:26:31;99599.45;;;13.34;47.28
77450;BME280;66536;53.150;18.172;2024-02-23T11:29:08;99589.76;;;13.31;47.62
77450;BME280;66536;53.150;18.172;2024-02-23T11:31:35;99597.47;;;13.25;46.88
77450;BME280;66536;53.150;18.172;2024-02-23T11:34:08;99591.73;;;13.15;47.17
77450;BME280;66536;53.150;18.172;2024-02-23T11:36:35;99593.21;;;13.11;46.59
77450;BME280;66536;53.150;18.172;2024-02-23T11:39:04;99592.64;;;13.19;46.75
77450;BME280;66536;53.150;18.172;2024-02-23T11:41:31;99591.54;;;13.30;46.64
77450;BME280;66536;53.150;18.172;2024-02-23T11:43:57;99596.48;;;13.39;47.29
77450;BME280;66536;53.150;18.172;2024-02-23T11:46:24;99603.80;;;13.46;47.65
77450;BME280;66536;53.150;18.172;2024-02-23T11:48:50;99603.01;;;13.53;47.73
77450;BME280;66536;53.150;18.172;2024-02-23T11:51:21;99598.41;;;13.57;47.57
77450;BME280;66536;53.150;18.172;2024-02-23T11:53:48;99594.97;;;13.54;48.25
77450;BME280;66536;53.150;18.172;2024-02-23T11:56:15;99602.52;;;13.52;47.92
77450;BME280;66536;53.150;18.172;2024-02-23T11:58:42;99598.23;;;13.45;46.63
77450;BME280;66536;53.150;18.172;2024-02-23T12:01:10;99608.13;;;13.32;46.87
77450;BME280;66536;53.150;18.172;2024-02-23T12:03:37;99605.98;;;13.30;47.69
77450;BME280;66536;53.150;18.172;2024-02-23T12:06:07;99610.10;;;13.33;47.10
77450;BME280;66536;53.150;18.172;2024-02-23T12:08:34;99621.14;;;13.43;47.00
77450;BME280;66536;53.150;18.172;2024-02-23T12:11:05;99611.02;;;13.46;46.12
77450;BME280;66536;53.150;18.172;2024-02-23T12:13:32;99621.58;;;13.47;47.13
77450;BME280;66536;53.150;18.172;2024-02-23T12:15:59;99618.25;;;13.39;46.65
77450;BME280;66536;53.150;18.172;2024-02-23T12:18:27;99629.20;;;13.28;47.38
77450;BME280;66536;53.150;18.172;2024-02-23T12:21:00;99634.64;;;13.26;47.30
77450;BME280;66536;53.150;18.172;2024-02-23T12:23:39;99625.44;;;13.27;47.45
77450;BME280;66536;53.150;18.172;2024-02-23T12:26:06;99641.27;;;13.29;46.97
77450;BME280;66536;53.150;18.172;2024-02-23T12:28:34;99641.61;;;13.19;47.92
77450;BME280;66536;53.150;18.172;2024-02-23T12:31:03;99637.91;;;13.18;47.32
77450;BME280;66536;53.150;18.172;2024-02-23T12:33:34;99632.06;;;13.20;46.74
77450;BME280;66536;53.150;18.172;2024-02-23T12:36:02;99638.86;;;13.35;47.22
77450;BME280;66536;53.150;18.172;2024-02-23T12:38:30;99640.83;;;13.56;47.04
77450;BME280;66536;53.150;18.172;2024-02-23T12:40:57;99646.45;;;13.67;47.90
77450;BME280;66536;53.150;18.172;2024-02-23T12:43:24;99640.20;;;13.65;47.77
77450;BME280;66536;53.150;18.172;2024-02-23T12:45:52;99644.71;;;13.62;48.63
77450;BME280;66536;53.150;18.172;2024-02-23T12:48:19;99647.86;;;13.66;48.73
77450;BME280;66536;53.150;18.172;2024-02-23T12:50:51;99653.27;;;13.65;48.36
77450;BME280;66536;53.150;18.172;2024-02-23T12:56:09;99663.35;;;13.41;48.77